Time;durP1;ratioP1;P1;durP2;ratioP2;P2;SDS_P1;SDS_P2;PMS_P1;PMS_P2;Temp;Humidity;BMP_temperature;BMP_pressure;BME280_temperature;BME280_humidity;BME280_pressure;Samples;Min_cycle;Max_cycle;Signal;HPM_P1;HPM_P2
2022/07/18 06:47:37;;;;;;;4.18;1.90;;;;;;;;;;12944803;23;20071;-87
2022/07/18 06:53:08;;;;;;;5.72;2.25;;;;;;;;;;12938794;23;20073;-87
2022/07/18 06:58:48;;;;;;;5.30;3.00;;;;;;;;;;12953355;23;20004;-86
2022/07/18 07:03:49;;;;;;;3.45;2.00;;;;;;;;;;12832362;23;2057984;-83
2022/07/18 07:08:50;;;;;;;4.53;1.83;;;;;;;;;;12811515;23;20005;-84
2022/07/18 07:13:51;;;;;;;5.78;4.93;;;;;;;;;;12793557;23;20004;-84
2022/07/18 07:18:52;;;;;;;5.30;1.70;;;;;;;;;;12792644;23;20064;-84
2022/07/18 07:24:03;;;;;;;4.35;2.03;;;;;;;;;;12793114;23;20009;-83
2022/07/18 07:40:05;;;;;;;;;;;;;;;;;;12816778;23;20068;-85
2022/07/18 07:45:32;;;;;;;9.30;2.58;;;;;;;;;;12791644;23;19901;-84
2022/07/18 07:50:36;;;;;;;3.65;1.92;;;;;;;;;;12818112;23;20460;-84
2022/07/18 07:55:42;;;;;;;4.50;1.80;;;;;;;;;;12790087;23;20005;-83
2022/07/18 08:06:26;;;;;;;3.28;1.95;;;;;;;;;;12814902;23;20017;-84
2022/07/18 08:11:30;;;;;;;4.75;2.05;;;;;;;;;;12793111;23;20012;-83
2022/07/18 08:16:33;;;;;;;4.38;1.65;;;;;;;;;;12792109;23;20012;-82
2022/07/18 08:21:55;;;;;;;3.55;1.67;;;;;;;;;;12816710;23;20013;-85
2022/07/18 08:26:56;;;;;;;6.15;1.60;;;;;;;;;;12791779;23;20016;-84
2022/07/18 08:32:35;;;;;;;4.63;1.88;;;;;;;;;;12769010;23;20005;-83
2022/07/18 08:37:36;;;;;;;5.18;2.00;;;;;;;;;;12789377;23;20020;-83
2022/07/18 08:42:41;;;;;;;5.90;1.60;;;;;;;;;;12816690;23;20030;-83
2022/07/18 08:48:00;;;;;;;3.33;1.30;;;;;;;;;;12791065;23;20412;-83
2022/07/18 08:53:05;;;;;;;4.85;1.40;;;;;;;;;;12790477;23;20021;-82
2022/07/18 08:58:06;;;;;;;6.38;5.07;;;;;;;;;;12766137;23;20181;-83
2022/07/18 09:03:14;;;;;;;5.95;1.70;;;;;;;;;;12803212;23;20013;-83
2022/07/18 09:08:19;;;;;;;6.95;1.63;;;;;;;;;;12790149;23;20001;-82
2022/07/18 09:13:23;;;;;;;2.90;1.40;;;;;;;;;;12791417;23;20011;-85
2022/07/18 09:18:31;;;;;;;4.10;1.48;;;;;;;;;;12814674;23;20009;-82
2022/07/18 09:23:44;;;;;;;4.93;1.55;;;;;;;;;;12790230;23;20005;-82
2022/07/18 09:29:18;;;;;;;5.72;3.45;;;;;;;;;;12811939;23;20005;-83
2022/07/18 09:34:34;;;;;;;4.28;2.00;;;;;;;;;;12787067;23;20012;-82
2022/07/18 09:39:49;;;;;;;5.68;1.60;;;;;;;;;;12790720;23;20017;-83
2022/07/18 09:45:10;;;;;;;4.68;1.55;;;;;;;;;;12811148;23;20009;-83
2022/07/18 09:50:20;;;;;;;2.38;1.70;;;;;;;;;;12788821;23;20005;-83
2022/07/18 09:55:21;;;;;;;;;;;;;;;;;;12802128;23;20046;-85
2022/07/18 10:00:22;;;;;;;2.35;1.50;;;;;;;;;;12790633;23;19900;-84
2022/07/18 10:05:24;;;;;;;3.35;1.70;;;;;;;;;;12792846;23;20009;-84
2022/07/18 10:10:30;;;;;;;2.85;1.73;;;;;;;;;;12817146;23;20013;-85
2022/07/18 10:15:39;;;;;;;2.13;1.70;;;;;;;;;;12792499;23;20029;-85
2022/07/18 10:21:05;;;;;;;4.82;3.30;;;;;;;;;;12789671;23;20009;-85
2022/07/18 10:26:27;;;;;;;5.20;1.88;;;;;;;;;;12790219;23;20005;-82
2022/07/18 10:31:29;;;;;;;3.40;1.90;;;;;;;;;;12813569;23;20008;-83
2022/07/18 10:37:00;;;;;;;2.15;1.65;;;;;;;;;;12813841;23;20287;-84
2022/07/18 10:42:01;;;;;;;2.28;1.52;;;;;;;;;;12818208;23;20005;-83
2022/07/18 10:47:23;;;;;;;3.65;1.90;;;;;;;;;;12796693;23;20016;-82
2022/07/18 10:52:27;;;;;;;5.25;1.80;;;;;;;;;;12795651;23;20001;-83
2022/07/18 10:57:40;;;;;;;2.65;1.90;;;;;;;;;;12796494;23;20049;-83
2022/07/18 11:02:43;;;;;;;5.63;1.52;;;;;;;;;;12808540;23;20001;-81
2022/07/18 11:08:05;;;;;;;3.60;1.83;;;;;;;;;;12824693;23;20012;-82
2022/07/18 11:13:25;;;;;;;3.78;1.98;;;;;;;;;;12821893;23;20088;-81
2022/07/18 11:18:26;;;;;;;4.50;1.55;;;;;;;;;;12793678;23;20009;-83
2022/07/18 11:23:28;;;;;;;4.15;1.70;;;;;;;;;;12792389;23;20001;-82
2022/07/18 11:28:29;;;;;;;3.85;1.90;;;;;;;;;;12793583;23;20043;-82
2022/07/18 11:33:31;;;;;;;6.22;2.33;;;;;;;;;;12791558;23;20005;-83
2022/07/18 11:38:32;;;;;;;4.15;2.10;;;;;;;;;;12794180;23;20044;-82
2022/07/18 11:43:34;;;;;;;3.58;2.20;;;;;;;;;;12808764;23;20001;-82
2022/07/18 11:48:36;;;;;;;4.07;1.85;;;;;;;;;;12791528;23;20009;-82
2022/07/18 11:53:42;;;;;;;4.43;1.48;;;;;;;;;;12794176;23;19997;-82
2022/07/18 11:58:46;;;;;;;3.15;2.50;;;;;;;;;;12792321;23;20004;-82
2022/07/18 12:03:47;;;;;;;5.45;1.98;;;;;;;;;;12792137;23;20396;-81
2022/07/18 12:08:53;;;;;;;3.45;2.28;;;;;;;;;;12790609;23;20013;-81
2022/07/18 12:14:04;;;;;;;2.83;1.83;;;;;;;;;;12821116;23;20027;-82
2022/07/18 12:19:12;;;;;;;2.85;1.90;;;;;;;;;;12791641;23;20084;-82
2022/07/18 12:24:31;;;;;;;3.85;2.00;;;;;;;;;;12790603;23;20011;-82
2022/07/18 12:29:33;;;;;;;4.13;2.30;;;;;;;;;;12792480;23;20024;-82
2022/07/18 12:34:34;;;;;;;4.22;2.05;;;;;;;;;;12818117;23;20004;-81
2022/07/18 12:39:35;;;;;;;3.30;2.05;;;;;;;;;;12816394;23;20012;-82
2022/07/18 12:44:36;;;;;;;4.18;2.10;;;;;;;;;;12790805;23;20365;-82
2022/07/18 12:49:37;;;;;;;3.92;1.95;;;;;;;;;;12790698;23;20012;-81
2022/07/18 12:55:14;;;;;;;4.63;1.92;;;;;;;;;;12835352;23;20005;-82
2022/07/18 13:34:24;;;;;;;;;;;;;;;;;;12838684;23;20013;-81
2022/07/18 14:48:23;;;;;;;4.93;1.95;;;;;;;;;;12841003;23;20025;-82
2022/07/18 14:54:09;;;;;;;7.30;2.03;;;;;;;;;;12706675;23;20010;-82
2022/07/18 14:59:48;;;;;;;3.92;1.90;;;;;;;;;;12589948;23;20019;-82
2022/07/18 15:05:17;;;;;;;6.75;2.05;;;;;;;;;;12563717;23;20027;-83
2022/07/18 15:50:34;;;;;;;7.70;3.67;;;;;;;;;;12649980;23;20054;-84
2022/07/18 16:01:59;;;;;;;5.10;2.45;;;;;;;;;;12853916;23;20017;-82
2022/07/18 17:46:00;;;;;;;5.38;2.25;;;;;;;;;;12655388;23;20073;-86
2022/07/18 17:51:44;;;;;;;4.65;2.20;;;;;;;;;;12687350;23;20025;-86
2022/07/18 17:56:48;;;;;;;5.50;2.20;;;;;;;;;;12792077;23;20023;-85
2022/07/18 18:02:20;;;;;;;3.28;1.80;;;;;;;;;;12816341;23;20020;-84
2022/07/18 18:08:00;;;;;;;4.32;2.50;;;;;;;;;;12742189;23;20341;-85
2022/07/18 18:13:06;;;;;;;5.40;2.05;;;;;;;;;;12690714;23;20438;-86
2022/07/18 18:18:27;;;;;;;4.68;2.05;;;;;;;;;;12774950;23;20323;-85
2022/07/18 18:23:50;;;;;;;4.95;2.60;;;;;;;;;;12790142;23;20100;-85
2022/07/18 18:40:26;;;;;;;3.00;2.20;;;;;;;;;;12825338;23;20005;-84
2022/07/18 18:45:27;;;;;;;7.00;2.90;;;;;;;;;;12791391;23;20096;-85
2022/07/18 18:56:13;;;;;;;4.35;2.00;;;;;;;;;;12815081;23;20055;-82
2022/07/18 19:24:01;;;;;;;4.68;3.38;;;;;;;;;;12647634;23;19909;-82
